Time;durP1;ratioP1;P1;durP2;ratioP2;P2;SDS_P1;SDS_P2;PMS_P1;PMS_P2;Temp;Humidity;BMP_temperature;BMP_pressure;BME280_temperature;BME280_humidity;BME280_pressure;Samples;Min_cycle;Max_cycle;Signal;HPM_P1;HPM_P2
2022/04/24 00:01:38;;;;;;;11.52;7.63;;;;;;;;;;5012780;28;20207;-65
2022/04/24 00:04:03;;;;;;;10.07;7.03;;;;;;;;;;5024316;28;20273;-64
2022/04/24 00:06:32;;;;;;;10.23;7.50;;;;;;;;;;5021838;28;20194;-64
2022/04/24 00:08:57;;;;;;;10.65;7.53;;;;;;;;;;5024128;28;20174;-64
2022/04/24 00:11:23;;;;;;;10.60;7.93;;;;;;;;;;5025570;28;20680;-65
2022/04/24 00:13:48;;;;;;;10.82;7.70;;;;;;;;;;5024967;28;20214;-65
2022/04/24 00:16:14;;;;;;;10.25;7.82;;;;;;;;;;5024907;28;20579;-65
2022/04/24 00:18:39;;;;;;;14.30;7.78;;;;;;;;;;5025971;28;20188;-65
2022/04/24 00:21:05;;;;;;;15.07;7.65;;;;;;;;;;5026245;28;20193;-65
2022/04/24 00:23:32;;;;;;;11.88;7.93;;;;;;;;;;5028493;28;20190;-65
2022/04/24 00:25:57;;;;;;;10.32;7.47;;;;;;;;;;5021671;28;20182;-65
2022/04/24 00:28:23;;;;;;;11.55;7.90;;;;;;;;;;5026852;28;20541;-65
2022/04/24 00:30:48;;;;;;;10.88;7.55;;;;;;;;;;5027773;28;20685;-65
2022/04/24 00:33:14;;;;;;;9.75;7.28;;;;;;;;;;5022897;28;20191;-66
2022/04/24 00:35:39;;;;;;;10.98;8.00;;;;;;;;;;5018850;28;20182;-65
2022/04/24 00:38:04;;;;;;;12.85;7.85;;;;;;;;;;5014818;28;20209;-65
2022/04/24 00:40:30;;;;;;;12.13;7.47;;;;;;;;;;5016431;28;20656;-66
2022/04/24 00:42:55;;;;;;;10.88;7.97;;;;;;;;;;5022876;28;20287;-65
2022/04/24 00:45:21;;;;;;;12.95;8.75;;;;;;;;;;5027711;28;20646;-66
2022/04/24 00:47:46;;;;;;;12.32;7.97;;;;;;;;;;5018853;28;20182;-65
2022/04/24 00:50:11;;;;;;;12.35;8.07;;;;;;;;;;5022432;28;20199;-65
2022/04/24 00:52:37;;;;;;;10.35;7.32;;;;;;;;;;5018199;28;20190;-64
2022/04/24 00:55:04;;;;;;;11.43;7.72;;;;;;;;;;5023461;28;20205;-64
2022/04/24 00:57:29;;;;;;;12.10;8.18;;;;;;;;;;5014315;28;20252;-65
2022/04/24 00:59:55;;;;;;;11.65;7.63;;;;;;;;;;5019264;28;20693;-65
2022/04/24 01:02:20;;;;;;;11.75;7.53;;;;;;;;;;5023767;28;20558;-65
2022/04/24 01:04:46;;;;;;;12.77;8.15;;;;;;;;;;5023525;28;20372;-65
2022/04/24 01:07:11;;;;;;;11.45;7.82;;;;;;;;;;5022387;28;20185;-65
2022/04/24 01:09:37;;;;;;;11.68;7.68;;;;;;;;;;5017627;28;20187;-64
2022/04/24 01:12:04;;;;;;;10.32;7.13;;;;;;;;;;5016868;28;20206;-65
2022/04/24 01:14:31;;;;;;;10.17;6.90;;;;;;;;;;5024403;28;20275;-64
2022/04/24 01:16:57;;;;;;;11.93;7.80;;;;;;;;;;5027500;28;20194;-64
2022/04/24 01:19:24;;;;;;;10.73;7.38;;;;;;;;;;5027656;28;20223;-65
2022/04/24 01:21:50;;;;;;;12.35;7.18;;;;;;;;;;5009887;28;20210;-65
2022/04/24 01:24:18;;;;;;;9.40;6.93;;;;;;;;;;5020002;28;20179;-65
2022/04/24 01:26:43;;;;;;;9.05;6.45;;;;;;;;;;5016754;28;20244;-64
2022/04/24 01:29:12;;;;;;;11.43;7.20;;;;;;;;;;5028118;28;20186;-64
2022/04/24 01:31:40;;;;;;;10.32;7.00;;;;;;;;;;5025301;28;20205;-64
2022/04/24 01:34:06;;;;;;;9.57;6.65;;;;;;;;;;5024276;28;20182;-64
2022/04/24 01:36:31;;;;;;;11.05;6.70;;;;;;;;;;5022894;28;20634;-64
2022/04/24 01:38:57;;;;;;;10.57;6.60;;;;;;;;;;5016186;28;20590;-64
2022/04/24 01:41:22;;;;;;;9.52;6.60;;;;;;;;;;5025120;28;20181;-64
2022/04/24 01:43:48;;;;;;;10.32;6.28;;;;;;;;;;5023884;28;20182;-64
2022/04/24 01:46:14;;;;;;;8.35;5.90;;;;;;;;;;5018175;28;20186;-65
2022/04/24 01:48:39;;;;;;;11.35;6.65;;;;;;;;;;5024884;28;20269;-65
2022/04/24 01:51:06;;;;;;;8.88;5.95;;;;;;;;;;5024413;28;20201;-64
2022/04/24 01:53:32;;;;;;;8.18;6.18;;;;;;;;;;5022943;28;20214;-64
2022/04/24 01:55:59;;;;;;;11.25;6.13;;;;;;;;;;5017683;28;20178;-64
2022/04/24 01:58:25;;;;;;;8.88;5.80;;;;;;;;;;5024059;28;20186;-64
2022/04/24 02:00:51;;;;;;;9.05;6.25;;;;;;;;;;5019053;28;20194;-65
2022/04/24 02:03:17;;;;;;;8.13;5.72;;;;;;;;;;5023344;28;20225;-65
2022/04/24 02:05:43;;;;;;;10.30;5.80;;;;;;;;;;5027352;28;20186;-65
2022/04/24 02:08:08;;;;;;;11.32;5.45;;;;;;;;;;5021265;28;20613;-65
2022/04/24 02:10:33;;;;;;;8.90;5.88;;;;;;;;;;5019876;28;20289;-65
2022/04/24 02:12:59;;;;;;;8.63;5.80;;;;;;;;;;5020749;28;20287;-65
2022/04/24 02:15:25;;;;;;;8.52;5.85;;;;;;;;;;5021232;28;20182;-66
2022/04/24 02:17:50;;;;;;;7.28;5.55;;;;;;;;;;5025815;28;20288;-65
2022/04/24 02:20:16;;;;;;;10.57;6.18;;;;;;;;;;5018096;28;20186;-64
2022/04/24 02:22:41;;;;;;;9.15;6.20;;;;;;;;;;5019027;28;20239;-65
2022/04/24 02:25:06;;;;;;;9.48;5.68;;;;;;;;;;5028081;28;20206;-65
2022/04/24 02:27:32;;;;;;;8.68;5.85;;;;;;;;;;5019406;28;20190;-64
2022/04/24 02:29:57;;;;;;;10.10;5.43;;;;;;;;;;5023553;28;20190;-64
2022/04/24 02:32:23;;;;;;;10.85;5.68;;;;;;;;;;5020145;28;20210;-64
2022/04/24 02:34:48;;;;;;;8.18;6.00;;;;;;;;;;5024695;28;20182;-64
2022/04/24 02:37:14;;;;;;;7.72;5.43;;;;;;;;;;5014355;28;20186;-65
2022/04/24 02:39:39;;;;;;;8.60;5.50;;;;;;;;;;5014182;28;20182;-64
2022/04/24 02:42:04;;;;;;;8.73;5.40;;;;;;;;;;5018833;28;20577;-65
2022/04/24 02:44:30;;;;;;;10.13;5.72;;;;;;;;;;5025990;28;20406;-64
2022/04/24 02:46:55;;;;;;;7.93;5.53;;;;;;;;;;5021954;28;20362;-65
2022/04/24 02:49:21;;;;;;;7.65;5.30;;;;;;;;;;5024715;28;20193;-64
2022/04/24 02:51:46;;;;;;;7.80;5.55;;;;;;;;;;5023029;28;20715;-64
2022/04/24 02:54:12;;;;;;;9.48;5.10;;;;;;;;;;5024235;28;20204;-65
2022/04/24 02:56:37;;;;;;;11.00;5.22;;;;;;;;;;5019311;28;20174;-65
2022/04/24 02:59:02;;;;;;;6.60;5.28;;;;;;;;;;5023915;28;20186;-64
2022/04/24 03:01:30;;;;;;;9.07;5.30;;;;;;;;;;5016689;28;20187;-64
2022/04/24 03:03:56;;;;;;;8.30;4.80;;;;;;;;;;5021702;28;20178;-64
2022/04/24 03:06:21;;;;;;;7.65;6.18;;;;;;;;;;5018986;28;20194;-64
2022/04/24 03:08:47;;;;;;;8.35;5.10;;;;;;;;;;5022211;28;20463;-64
2022/04/24 03:11:14;;;;;;;8.10;5.20;;;;;;;;;;5015180;28;20210;-65
2022/04/24 03:13:39;;;;;;;8.43;5.20;;;;;;;;;;5013888;28;20275;-64
2022/04/24 03:16:05;;;;;;;8.98;4.82;;;;;;;;;;5026414;28;20190;-65
2022/04/24 03:18:30;;;;;;;6.20;4.88;;;;;;;;;;5021270;28;20713;-64
2022/04/24 03:20:55;;;;;;;6.45;4.45;;;;;;;;;;5014835;28;20225;-64
2022/04/24 03:23:21;;;;;;;6.70;5.07;;;;;;;;;;5023090;28;20509;-64
2022/04/24 03:25:46;;;;;;;6.30;4.53;;;;;;;;;;5027298;28;20218;-64
2022/04/24 03:28:11;;;;;;;6.35;4.80;;;;;;;;;;5025511;28;20344;-65
2022/04/24 03:30:37;;;;;;;8.40;5.07;;;;;;;;;;5022837;28;20221;-65
2022/04/24 03:33:02;;;;;;;8.85;4.45;;;;;;;;;;5017890;28;20190;-65
2022/04/24 03:35:28;;;;;;;8.20;4.75;;;;;;;;;;5026995;28;20261;-65
2022/04/24 03:37:53;;;;;;;6.03;4.43;;;;;;;;;;5014226;28;20186;-65
2022/04/24 03:40:21;;;;;;;11.32;5.13;;;;;;;;;;5022377;28;20193;-66
2022/04/24 03:42:47;;;;;;;7.82;4.63;;;;;;;;;;5023619;28;20186;-65
2022/04/24 03:45:12;;;;;;;7.60;4.80;;;;;;;;;;5026454;28;20240;-65
2022/04/24 03:47:38;;;;;;;7.75;5.10;;;;;;;;;;5017072;28;20214;-65
2022/04/24 03:50:05;;;;;;;6.57;4.32;;;;;;;;;;5025785;28;20574;-65
2022/04/24 03:52:31;;;;;;;7.45;5.28;;;;;;;;;;5025568;28;20653;-65
2022/04/24 03:54:57;;;;;;;10.38;4.95;;;;;;;;;;5023980;28;20427;-65
2022/04/24 03:57:22;;;;;;;5.80;4.38;;;;;;;;;;5007632;28;20245;-65
2022/04/24 03:59:48;;;;;;;9.85;4.78;;;;;;;;;;5025918;28;20485;-65
2022/04/24 04:02:13;;;;;;;9.25;4.95;;;;;;;;;;5018157;28;20289;-65
2022/04/24 04:04:39;;;;;;;7.18;4.68;;;;;;;;;;5023316;28;20186;-65
2022/04/24 04:07:05;;;;;;;8.00;4.57;;;;;;;;;;5016350;28;20190;-65
2022/04/24 04:09:30;;;;;;;8.18;5.15;;;;;;;;;;5016422;28;20195;-65
2022/04/24 04:11:56;;;;;;;6.83;4.63;;;;;;;;;;5017125;28;20203;-65
2022/04/24 04:14:24;;;;;;;6.80;4.50;;;;;;;;;;5017742;28;20542;-65
2022/04/24 04:16:51;;;;;;;9.35;4.88;;;;;;;;;;5021846;28;20186;-64
2022/04/24 04:19:16;;;;;;;6.80;5.10;;;;;;;;;;5022298;28;20206;-64
2022/04/24 04:21:44;;;;;;;6.93;4.93;;;;;;;;;;5026442;28;20220;-64
2022/04/24 04:24:11;;;;;;;9.00;5.27;;;;;;;;;;5029419;28;20185;-64
2022/04/24 04:26:36;;;;;;;6.70;4.93;;;;;;;;;;5027834;28;20689;-64
2022/04/24 04:29:02;;;;;;;6.77;4.47;;;;;;;;;;5026166;28;20221;-64
2022/04/24 04:31:27;;;;;;;5.90;4.40;;;;;;;;;;5025022;28;20224;-64
2022/04/24 04:33:53;;;;;;;6.17;4.17;;;;;;;;;;5028033;28;20194;-64
2022/04/24 04:36:19;;;;;;;5.47;4.43;;;;;;;;;;5028091;28;20240;-64
2022/04/24 04:38:45;;;;;;;7.20;4.80;;;;;;;;;;5028396;28;20273;-64
2022/04/24 04:41:10;;;;;;;6.57;4.30;;;;;;;;;;5024463;28;20257;-64
2022/04/24 04:43:35;;;;;;;5.37;4.27;;;;;;;;;;5023156;28;20187;-64
2022/04/24 04:46:01;;;;;;;6.77;4.80;;;;;;;;;;5024263;28;20668;-64
2022/04/24 04:48:26;;;;;;;7.87;4.70;;;;;;;;;;5027509;28;20234;-63
2022/04/24 04:50:52;;;;;;;8.80;4.70;;;;;;;;;;5026520;28;20750;-64
2022/04/24 04:53:18;;;;;;;6.70;4.70;;;;;;;;;;5024123;28;20874;-64
2022/04/24 04:55:43;;;;;;;6.50;4.27;;;;;;;;;;5025293;28;20280;-64
2022/04/24 04:58:09;;;;;;;6.43;4.30;;;;;;;;;;5025514;28;20197;-64
2022/04/24 05:00:34;;;;;;;5.70;4.27;;;;;;;;;;5028367;28;20186;-64
2022/04/24 05:02:59;;;;;;;5.13;3.77;;;;;;;;;;5023688;28;20198;-64
2022/04/24 05:05:25;;;;;;;8.33;4.63;;;;;;;;;;5016969;28;20464;-64
2022/04/24 05:07:51;;;;;;;6.93;4.43;;;;;;;;;;5020572;28;20236;-64
2022/04/24 05:10:16;;;;;;;7.30;4.20;;;;;;;;;;5025797;28;20264;-65
2022/04/24 05:12:42;;;;;;;6.53;4.40;;;;;;;;;;5022175;28;20229;-65
2022/04/24 05:15:10;;;;;;;9.00;4.27;;;;;;;;;;5022123;28;20318;-65
2022/04/24 05:17:36;;;;;;;6.77;4.17;;;;;;;;;;5024240;28;20320;-65
2022/04/24 05:20:06;;;;;;;6.07;4.33;;;;;;;;;;5023455;28;20650;-65
2022/04/24 05:22:32;;;;;;;7.30;4.40;;;;;;;;;;5025703;28;20678;-64
2022/04/24 05:24:58;;;;;;;6.53;4.00;;;;;;;;;;5024330;28;20356;-64
2022/04/24 05:27:23;;;;;;;5.97;3.90;;;;;;;;;;5025916;28;20193;-64
2022/04/24 05:29:48;;;;;;;6.40;4.10;;;;;;;;;;5024879;28;20194;-64
2022/04/24 05:32:15;;;;;;;6.67;4.73;;;;;;;;;;5024137;28;20218;-64
2022/04/24 05:34:40;;;;;;;5.40;4.30;;;;;;;;;;5027165;28;20281;-65
2022/04/24 05:37:06;;;;;;;5.47;4.10;;;;;;;;;;5023109;28;20319;-64
2022/04/24 05:39:32;;;;;;;5.57;3.90;;;;;;;;;;5026089;28;20280;-66
2022/04/24 05:41:57;;;;;;;7.03;4.27;;;;;;;;;;5021727;28;20194;-66
2022/04/24 05:44:22;;;;;;;8.93;4.40;;;;;;;;;;5025636;28;20194;-64
2022/04/24 05:46:48;;;;;;;5.40;4.03;;;;;;;;;;5024070;28;20555;-65
2022/04/24 05:49:13;;;;;;;5.73;3.90;;;;;;;;;;5026875;28;20511;-65
2022/04/24 05:51:39;;;;;;;5.47;4.00;;;;;;;;;;5024440;28;20630;-64
2022/04/24 05:54:04;;;;;;;6.57;4.30;;;;;;;;;;5027553;28;20669;-65
2022/04/24 05:56:29;;;;;;;5.40;3.87;;;;;;;;;;5026004;28;20202;-65
2022/04/24 05:58:55;;;;;;;5.20;3.73;;;;;;;;;;5023285;28;20194;-66
2022/04/24 06:01:20;;;;;;;4.80;3.83;;;;;;;;;;5023721;28;20308;-65
2022/04/24 06:03:45;;;;;;;5.17;3.97;;;;;;;;;;5023205;28;20183;-65
2022/04/24 06:06:11;;;;;;;9.47;4.73;;;;;;;;;;5024512;28;20269;-65
2022/04/24 06:08:37;;;;;;;6.50;3.90;;;;;;;;;;5024318;28;20508;-65
2022/04/24 06:11:02;;;;;;;7.03;3.83;;;;;;;;;;5026024;28;20249;-64
2022/04/24 06:13:28;;;;;;;6.40;3.87;;;;;;;;;;5024364;28;20312;-64
2022/04/24 06:15:57;;;;;;;6.33;4.50;;;;;;;;;;5024400;28;20178;-64
2022/04/24 06:18:24;;;;;;;5.90;4.30;;;;;;;;;;5022237;28;20201;-65
2022/04/24 06:20:49;;;;;;;6.00;3.80;;;;;;;;;;5024938;28;20217;-66
2022/04/24 06:23:15;;;;;;;7.47;4.15;;;;;;;;;;5023435;28;20218;-64
2022/04/24 06:25:40;;;;;;;5.28;3.50;;;;;;;;;;5024692;28;20185;-66
2022/04/24 06:28:06;;;;;;;5.53;4.00;;;;;;;;;;5024941;28;20189;-66
2022/04/24 06:30:32;;;;;;;5.00;3.80;;;;;;;;;;5024202;28;20225;-65
2022/04/24 06:33:00;;;;;;;7.37;3.87;;;;;;;;;;5023594;28;20261;-65
2022/04/24 06:35:26;;;;;;;6.73;4.00;;;;;;;;;;5023649;28;20190;-66
2022/04/24 06:37:53;;;;;;;5.78;3.50;;;;;;;;;;5020301;28;20193;-66
2022/04/24 06:40:19;;;;;;;7.78;3.90;;;;;;;;;;5026745;28;20525;-65
2022/04/24 06:42:51;;;;;;;7.10;4.10;;;;;;;;;;5020182;28;20186;-68
2022/04/24 06:45:20;;;;;;;4.80;3.67;;;;;;;;;;5023579;28;20183;-64
2022/04/24 06:47:45;;;;;;;6.15;3.80;;;;;;;;;;5021462;28;20197;-64
2022/04/24 06:50:11;;;;;;;6.13;3.80;;;;;;;;;;5022870;28;20191;-64
2022/04/24 06:52:36;;;;;;;4.70;3.38;;;;;;;;;;5023031;28;20260;-64
2022/04/24 06:55:02;;;;;;;7.68;4.30;;;;;;;;;;5021189;28;20182;-64
2022/04/24 06:57:27;;;;;;;8.05;4.20;;;;;;;;;;5022255;28;20196;-66
2022/04/24 06:59:52;;;;;;;5.88;3.70;;;;;;;;;;5024438;28;20182;-65
2022/04/24 07:02:18;;;;;;;5.43;3.47;;;;;;;;;;5019880;28;20217;-65
2022/04/24 07:04:43;;;;;;;4.65;3.58;;;;;;;;;;5021607;28;20174;-64
2022/04/24 07:07:08;;;;;;;6.95;3.53;;;;;;;;;;5024028;28;20561;-64
2022/04/24 07:09:34;;;;;;;6.82;3.92;;;;;;;;;;5025098;28;20190;-65
2022/04/24 07:11:59;;;;;;;5.25;4.10;;;;;;;;;;5021110;28;20194;-64
2022/04/24 07:14:24;;;;;;;8.60;4.50;;;;;;;;;;5020847;28;20190;-65
2022/04/24 07:16:50;;;;;;;5.75;4.28;;;;;;;;;;5021954;28;20689;-64
2022/04/24 07:19:15;;;;;;;6.25;4.20;;;;;;;;;;5021208;28;20665;-65
2022/04/24 07:21:41;;;;;;;5.53;4.00;;;;;;;;;;5019892;28;20196;-65
2022/04/24 07:24:07;;;;;;;5.38;3.88;;;;;;;;;;5021346;28;20597;-65
2022/04/24 07:26:32;;;;;;;4.65;3.80;;;;;;;;;;5025526;28;20178;-65
2022/04/24 07:28:59;;;;;;;8.73;4.25;;;;;;;;;;5012689;28;20533;-65
2022/04/24 07:31:24;;;;;;;7.15;4.10;;;;;;;;;;5020570;28;20239;-65
2022/04/24 07:33:50;;;;;;;6.68;3.75;;;;;;;;;;5021132;28;20277;-65
2022/04/24 07:36:15;;;;;;;6.43;4.10;;;;;;;;;;5024653;28;20184;-65
2022/04/24 07:38:42;;;;;;;7.65;4.07;;;;;;;;;;5024341;28;20625;-65
2022/04/24 07:41:07;;;;;;;9.27;4.15;;;;;;;;;;5026957;28;20600;-66
2022/04/24 07:43:33;;;;;;;6.60;4.07;;;;;;;;;;5018324;28;20218;-65
2022/04/24 07:45:59;;;;;;;7.10;3.80;;;;;;;;;;5023629;28;20551;-65
2022/04/24 07:48:25;;;;;;;7.55;4.57;;;;;;;;;;5027603;28;20248;-65
2022/04/24 07:50:51;;;;;;;6.10;3.70;;;;;;;;;;5027073;28;20190;-66
2022/04/24 07:53:17;;;;;;;6.03;3.33;;;;;;;;;;5027331;28;20238;-65
2022/04/24 07:55:45;;;;;;;6.55;4.40;;;;;;;;;;5027986;28;20575;-65
2022/04/24 07:58:11;;;;;;;7.22;4.10;;;;;;;;;;5018408;28;20261;-65
2022/04/24 08:00:37;;;;;;;4.57;3.70;;;;;;;;;;5026920;28;20273;-66
2022/04/24 08:03:05;;;;;;;7.72;4.20;;;;;;;;;;5023208;28;20182;-66
2022/04/24 08:05:42;;;;;;;7.93;3.75;;;;;;;;;;5026631;28;20210;-66
2022/04/24 08:08:11;;;;;;;6.65;4.10;;;;;;;;;;5022038;28;20281;-66
2022/04/24 08:10:38;;;;;;;8.85;4.20;;;;;;;;;;5025847;28;20205;-65
2022/04/24 08:13:05;;;;;;;5.47;4.38;;;;;;;;;;5025844;28;20575;-65
2022/04/24 08:15:33;;;;;;;5.85;4.10;;;;;;;;;;5023207;28;20186;-66
2022/04/24 08:17:58;;;;;;;11.15;4.43;;;;;;;;;;5022604;28;20240;-66
2022/04/24 08:20:24;;;;;;;5.88;4.35;;;;;;;;;;5019531;28;20190;-65
2022/04/24 08:22:52;;;;;;;5.32;4.15;;;;;;;;;;5011781;28;20187;-65
2022/04/24 08:25:20;;;;;;;8.00;4.25;;;;;;;;;;5023139;28;20440;-66
2022/04/24 08:27:47;;;;;;;7.32;4.32;;;;;;;;;;5020499;28;20266;-66
2022/04/24 08:30:14;;;;;;;6.88;4.25;;;;;;;;;;5022341;28;20653;-66
2022/04/24 08:32:41;;;;;;;6.53;4.43;;;;;;;;;;5025850;28;20541;-66
2022/04/24 08:35:08;;;;;;;8.18;4.82;;;;;;;;;;5020848;28;20201;-66
2022/04/24 08:37:34;;;;;;;5.85;4.07;;;;;;;;;;5015715;28;20617;-66
2022/04/24 08:39:59;;;;;;;5.85;4.05;;;;;;;;;;5016436;28;20185;-65
2022/04/24 08:42:26;;;;;;;6.78;4.18;;;;;;;;;;5026187;28;20178;-65
2022/04/24 08:44:55;;;;;;;6.68;4.30;;;;;;;;;;5022889;28;20656;-65
2022/04/24 08:47:21;;;;;;;6.15;3.85;;;;;;;;;;5015296;28;20178;-66
2022/04/24 08:49:46;;;;;;;9.23;5.20;;;;;;;;;;5016558;28;20719;-66
2022/04/24 08:52:14;;;;;;;5.97;3.90;;;;;;;;;;5029448;28;20210;-66
2022/04/24 08:54:41;;;;;;;8.25;4.18;;;;;;;;;;5029412;28;20193;-65
2022/04/24 08:57:10;;;;;;;6.80;4.68;;;;;;;;;;5030009;28;20791;-66
2022/04/24 08:59:37;;;;;;;6.05;4.20;;;;;;;;;;5022342;28;20182;-66
2022/04/24 09:02:02;;;;;;;7.97;4.25;;;;;;;;;;5029324;28;20304;-65
2022/04/24 09:04:31;;;;;;;5.75;4.00;;;;;;;;;;5029246;28;20905;-67
2022/04/24 09:06:57;;;;;;;8.80;3.80;;;;;;;;;;5022293;28;20549;-66
2022/04/24 09:09:23;;;;;;;5.95;3.95;;;;;;;;;;5021203;28;20192;-66
2022/04/24 09:11:48;;;;;;;5.60;4.43;;;;;;;;;;5020003;28;20202;-66
2022/04/24 09:14:20;;;;;;;6.40;4.30;;;;;;;;;;5020207;28;20300;-66
2022/04/24 09:16:49;;;;;;;8.70;4.30;;;;;;;;;;5018242;28;20186;-66
2022/04/24 09:19:23;;;;;;;6.22;4.57;;;;;;;;;;5019020;28;20189;-65
2022/04/24 09:21:50;;;;;;;7.65;4.60;;;;;;;;;;5023677;28;20771;-66
2022/04/24 09:24:16;;;;;;;5.22;3.88;;;;;;;;;;5031756;28;20232;-66
2022/04/24 09:26:51;;;;;;;6.93;4.15;;;;;;;;;;5028166;28;20190;-66
2022/04/24 09:29:17;;;;;;;8.63;4.32;;;;;;;;;;5012269;28;20189;-66
2022/04/24 09:31:47;;;;;;;6.32;4.05;;;;;;;;;;5018318;28;20259;-66
2022/04/24 09:34:13;;;;;;;7.20;4.43;;;;;;;;;;5027390;28;20217;-66
2022/04/24 09:36:38;;;;;;;6.32;4.35;;;;;;;;;;5028240;28;20186;-66
2022/04/24 09:39:03;;;;;;;6.07;4.13;;;;;;;;;;5027965;28;20636;-65
2022/04/24 09:41:29;;;;;;;6.60;3.70;;;;;;;;;;5014858;28;20179;-67
2022/04/24 09:43:54;;;;;;;7.72;4.63;;;;;;;;;;5019034;28;20186;-66
2022/04/24 09:46:29;;;;;;;5.72;4.00;;;;;;;;;;5029152;28;20201;-66
2022/04/24 09:48:59;;;;;;;7.35;4.47;;;;;;;;;;5025964;28;20644;-65
2022/04/24 09:51:25;;;;;;;6.75;4.53;;;;;;;;;;5026934;28;20669;-66
2022/04/24 09:53:53;;;;;;;5.78;3.88;;;;;;;;;;5028486;28;20642;-66
2022/04/24 09:56:19;;;;;;;5.82;4.05;;;;;;;;;;5017435;28;20265;-66
2022/04/24 09:58:45;;;;;;;5.45;4.18;;;;;;;;;;5016390;28;20261;-66
2022/04/24 10:01:12;;;;;;;5.93;4.10;;;;;;;;;;5019054;28;20175;-66
2022/04/24 10:03:38;;;;;;;6.38;3.47;;;;;;;;;;5020170;28;20186;-66
2022/04/24 10:06:05;;;;;;;4.50;3.90;;;;;;;;;;5025865;28;20711;-66
2022/04/24 10:08:33;;;;;;;7.80;3.90;;;;;;;;;;5028352;28;20189;-66
2022/04/24 10:11:07;;;;;;;5.60;3.80;;;;;;;;;;5028346;28;20750;-65
2022/04/24 10:13:39;;;;;;;5.53;3.72;;;;;;;;;;5021461;28;20668;-67
2022/04/24 10:16:31;;;;;;;5.35;3.38;;;;;;;;;;5028614;28;20736;-66
2022/04/24 10:19:31;;;;;;;5.40;3.70;;;;;;;;;;5027773;28;20182;-66
2022/04/24 10:22:18;;;;;;;7.65;3.53;;;;;;;;;;5027577;28;20325;-66
2022/04/24 10:24:45;;;;;;;5.03;3.40;;;;;;;;;;5011955;28;21439;-66
2022/04/24 10:27:11;;;;;;;5.68;3.75;;;;;;;;;;5020234;28;20186;-66
2022/04/24 10:29:51;;;;;;;5.55;3.97;;;;;;;;;;5017579;28;20237;-66
2022/04/24 10:32:27;;;;;;;5.72;4.05;;;;;;;;;;5027734;28;20677;-66
2022/04/24 10:34:53;;;;;;;7.25;3.72;;;;;;;;;;5015778;28;20225;-67
2022/04/24 10:37:31;;;;;;;4.25;3.13;;;;;;;;;;5025942;28;20178;-66
2022/04/24 10:40:00;;;;;;;6.38;3.67;;;;;;;;;;5013026;28;20637;-65
2022/04/24 10:42:33;;;;;;;8.05;3.90;;;;;;;;;;5027615;28;20182;-66
2022/04/24 10:45:16;;;;;;;9.23;3.75;;;;;;;;;;5024511;28;20273;-66
2022/04/24 10:47:50;;;;;;;4.63;3.90;;;;;;;;;;5019506;28;20188;-65
2022/04/24 10:50:20;;;;;;;6.65;3.90;;;;;;;;;;5018673;28;20185;-65
2022/04/24 10:52:47;;;;;;;6.50;3.72;;;;;;;;;;5015256;28;20236;-66
2022/04/24 10:55:18;;;;;;;6.53;3.63;;;;;;;;;;5016433;28;20182;-66
2022/04/24 10:57:47;;;;;;;4.28;3.22;;;;;;;;;;5024246;28;20185;-65
2022/04/24 11:00:22;;;;;;;7.50;3.80;;;;;;;;;;5019308;28;20228;-65
2022/04/24 11:02:49;;;;;;;8.25;3.70;;;;;;;;;;5019829;28;20424;-65
2022/04/24 11:05:19;;;;;;;5.22;3.28;;;;;;;;;;5027629;28;20178;-65
2022/04/24 11:07:45;;;;;;;5.50;3.20;;;;;;;;;;5027823;28;20559;-65
2022/04/24 11:10:11;;;;;;;7.72;3.90;;;;;;;;;;5020074;28;20182;-66
2022/04/24 11:12:38;;;;;;;6.18;3.55;;;;;;;;;;5024622;28;20239;-66
2022/04/24 11:15:12;;;;;;;5.82;3.88;;;;;;;;;;5011811;28;20269;-66
2022/04/24 11:17:38;;;;;;;4.50;3.33;;;;;;;;;;5014565;28;20182;-67
2022/04/24 11:20:13;;;;;;;8.27;3.60;;;;;;;;;;5027064;28;20609;-66
2022/04/24 11:22:55;;;;;;;4.28;2.90;;;;;;;;;;5027170;28;20231;-65
2022/04/24 11:25:22;;;;;;;4.85;3.50;;;;;;;;;;5028865;28;20189;-68
2022/04/24 11:27:58;;;;;;;5.10;3.67;;;;;;;;;;5023809;28;20489;-67
2022/04/24 11:30:31;;;;;;;4.75;2.92;;;;;;;;;;5024165;28;20215;-66
2022/04/24 11:33:05;;;;;;;5.25;2.85;;;;;;;;;;5025325;28;20560;-66
2022/04/24 11:35:31;;;;;;;5.28;3.17;;;;;;;;;;5027742;28;20185;-67
2022/04/24 11:37:57;;;;;;;5.13;2.75;;;;;;;;;;5023485;28;20823;-66
2022/04/24 11:40:23;;;;;;;4.68;2.75;;;;;;;;;;5027705;28;20265;-65
2022/04/24 11:42:49;;;;;;;3.60;2.72;;;;;;;;;;5025000;28;20178;-67
2022/04/24 11:50:52;;;;;;;5.57;3.00;;;;;;;;;;5023724;28;20275;-66
2022/04/24 11:53:20;;;;;;;3.63;2.92;;;;;;;;;;5031003;28;20209;-66
2022/04/24 11:56:03;;;;;;;5.40;2.70;;;;;;;;;;5027556;28;20202;-65
2022/04/24 11:58:36;;;;;;;4.55;2.85;;;;;;;;;;5026595;28;20186;-66
2022/04/24 12:01:07;;;;;;;3.50;2.58;;;;;;;;;;5024509;28;20178;-65
2022/04/24 12:03:34;;;;;;;2.92;2.60;;;;;;;;;;5027607;28;20190;-65
2022/04/24 12:06:02;;;;;;;4.22;2.70;;;;;;;;;;5026825;28;20186;-65
2022/04/24 12:08:49;;;;;;;3.88;2.40;;;;;;;;;;5026795;28;20186;-69
2022/04/24 12:11:24;;;;;;;4.93;2.53;;;;;;;;;;5027355;28;20612;-64
2022/04/24 12:14:10;;;;;;;5.70;3.05;;;;;;;;;;5026275;28;20660;-67
2022/04/24 12:16:38;;;;;;;5.35;3.10;;;;;;;;;;5026722;28;20178;-69
2022/04/24 12:19:04;;;;;;;6.55;2.80;;;;;;;;;;5024719;28;20190;-66
2022/04/24 12:21:31;;;;;;;8.57;2.63;;;;;;;;;;5021102;28;20205;-67
2022/04/24 12:23:58;;;;;;;4.25;2.40;;;;;;;;;;5025735;28;20189;-66
2022/04/24 12:26:23;;;;;;;4.07;2.40;;;;;;;;;;5027673;28;20212;-66
2022/04/24 12:28:49;;;;;;;4.05;2.95;;;;;;;;;;5024792;28;20186;-66
2022/04/24 12:31:27;;;;;;;3.65;2.58;;;;;;;;;;5027453;28;20201;-66
2022/04/24 12:33:57;;;;;;;4.07;2.50;;;;;;;;;;5023497;28;20190;-66
2022/04/24 12:36:23;;;;;;;3.63;2.90;;;;;;;;;;5025107;28;20196;-70
2022/04/24 12:39:03;;;;;;;2.85;2.50;;;;;;;;;;5025326;28;20292;-66
2022/04/24 12:41:29;;;;;;;5.45;2.78;;;;;;;;;;5026051;28;20186;-66
2022/04/24 12:43:58;;;;;;;5.03;2.75;;;;;;;;;;5025102;28;20178;-68
2022/04/24 12:46:24;;;;;;;6.25;2.78;;;;;;;;;;5023531;28;20694;-66
2022/04/24 12:48:52;;;;;;;3.38;2.90;;;;;;;;;;5025095;28;20266;-66
2022/04/24 12:51:21;;;;;;;5.85;3.00;;;;;;;;;;5025113;28;20232;-67
2022/04/24 12:53:50;;;;;;;6.47;2.90;;;;;;;;;;5025950;28;20222;-66
2022/04/24 12:56:15;;;;;;;6.65;3.30;;;;;;;;;;5024714;28;20194;-66
2022/04/24 12:58:41;;;;;;;5.40;2.60;;;;;;;;;;5026999;28;20251;-66
2022/04/24 13:01:07;;;;;;;3.60;2.50;;;;;;;;;;5024678;28;20604;-66
2022/04/24 13:03:33;;;;;;;4.72;2.50;;;;;;;;;;5028402;28;20184;-66
2022/04/24 13:06:00;;;;;;;3.85;2.80;;;;;;;;;;5027590;28;20182;-67
2022/04/24 13:08:25;;;;;;;3.60;2.88;;;;;;;;;;5028939;28;20189;-67
2022/04/24 13:10:51;;;;;;;4.68;2.45;;;;;;;;;;5025246;28;20198;-66
2022/04/24 13:13:16;;;;;;;4.70;2.58;;;;;;;;;;5025479;28;20230;-67
2022/04/24 13:15:42;;;;;;;3.78;2.50;;;;;;;;;;5017502;28;20183;-66
2022/04/24 13:18:07;;;;;;;5.00;2.72;;;;;;;;;;5027735;28;20193;-66
2022/04/24 13:20:41;;;;;;;4.78;2.78;;;;;;;;;;5028411;28;20649;-66
2022/04/24 13:23:09;;;;;;;4.18;2.75;;;;;;;;;;5027165;28;20185;-66
2022/04/24 13:25:35;;;;;;;3.17;2.40;;;;;;;;;;5019070;28;20220;-66
2022/04/24 13:28:02;;;;;;;3.38;2.80;;;;;;;;;;5026665;28;20210;-66
2022/04/24 13:30:28;;;;;;;6.13;2.83;;;;;;;;;;5024933;28;20182;-66
2022/04/24 13:32:54;;;;;;;4.93;2.85;;;;;;;;;;5027174;28;20386;-66
2022/04/24 13:35:19;;;;;;;6.22;2.67;;;;;;;;;;5026519;28;20178;-68
2022/04/24 13:40:30;;;;;;;7.50;3.30;;;;;;;;;;5024791;28;20231;-66
2022/04/24 13:42:55;;;;;;;6.20;3.00;;;;;;;;;;5027013;28;20178;-66
2022/04/24 13:45:21;;;;;;;3.75;2.75;;;;;;;;;;5024534;28;20281;-66
2022/04/24 13:47:46;;;;;;;5.60;2.72;;;;;;;;;;5023667;28;20174;-66
2022/04/24 13:50:12;;;;;;;4.22;2.70;;;;;;;;;;5025350;28;20196;-66
2022/04/24 13:52:38;;;;;;;5.25;2.75;;;;;;;;;;5026392;28;20210;-67
2022/04/24 13:55:04;;;;;;;4.80;2.63;;;;;;;;;;5026530;28;20193;-66
2022/04/24 13:57:29;;;;;;;6.25;2.95;;;;;;;;;;5023529;28;20182;-67
2022/04/24 13:59:56;;;;;;;3.58;2.60;;;;;;;;;;5016933;28;20193;-65
2022/04/24 14:02:22;;;;;;;6.68;3.33;;;;;;;;;;5022668;28;20204;-65
2022/04/24 14:04:48;;;;;;;4.72;2.90;;;;;;;;;;5025206;28;20192;-66
2022/04/24 14:07:18;;;;;;;5.93;2.85;;;;;;;;;;5134278;27;20302;-66
2022/04/24 14:09:44;;;;;;;5.05;2.83;;;;;;;;;;5101468;28;20183;-68
2022/04/24 14:12:10;;;;;;;4.38;2.70;;;;;;;;;;5100867;28;20540;-67
2022/04/24 14:14:36;;;;;;;6.03;2.40;;;;;;;;;;5103208;28;20190;-68
2022/04/24 14:17:01;;;;;;;4.82;3.05;;;;;;;;;;5101724;28;20175;-68
2022/04/24 14:19:26;;;;;;;3.70;2.80;;;;;;;;;;5104773;28;20250;-67
2022/04/24 14:21:55;;;;;;;3.95;2.92;;;;;;;;;;5103961;28;20191;-66
2022/04/24 14:24:23;;;;;;;4.38;3.25;;;;;;;;;;5103366;28;20241;-66
2022/04/24 14:26:51;;;;;;;4.25;2.70;;;;;;;;;;5102426;28;21528;-66
2022/04/24 14:29:19;;;;;;;4.30;3.08;;;;;;;;;;5103256;28;20183;-66
2022/04/24 14:31:48;;;;;;;6.05;2.75;;;;;;;;;;5099468;28;20701;-65
2022/04/24 14:34:19;;;;;;;4.38;2.72;;;;;;;;;;5101074;28;20203;-65
2022/04/24 14:36:44;;;;;;;3.80;2.67;;;;;;;;;;5101376;28;20168;-67
2022/04/24 14:39:10;;;;;;;3.08;2.58;;;;;;;;;;5103034;28;20183;-68
2022/04/24 14:41:36;;;;;;;6.95;2.60;;;;;;;;;;5098198;28;20175;-71
2022/04/24 14:44:02;;;;;;;6.47;2.70;;;;;;;;;;5102384;28;20350;-65
2022/04/24 14:57:29;;;;;;;4.65;2.50;;;;;;;;;;5101790;28;20586;-66
2022/04/24 14:59:56;;;;;;;6.05;2.53;;;;;;;;;;5103156;28;20176;-66